Airfield :







YOU CAN JOIN US ON...

 
LOGIN :

Register | Disclaimer

   EN    FR    IT 

 









Legend :    VFR   Marginal VFR   IFR   Intensive IFR   Very Intensive IFR
Visi :
Ceiling :
>= 8 km
>= 3000ft
5 to 8 km
1000 to 3000 ft
1500m to 5 km
500 to 1000 ft
800 to 1500m
200 to 500 ft
< 800m
< 200 ft
Symbols :   Thunderstorms  Fog  Heavy snow  Heavy precipitations  Wind > 20 kt






- Airport Elevation : 141 ft
- IATA code : YQI


CYQI - Yarmouth

CURRENT METAR :
  • 202200Z 01011KT 15SM FEW250 11/M00 A3047 RMK CI1 CI TR SLP320

EXPIRED METARs :
  • 202100Z 01012G19KT 15SM FEW250 13/00 A3045 RMK CI1 CI TR SLP315
  • 202000Z 01013G19KT 15SM FEW250 13/01 A3044 RMK CI1 CI TR SLP311

TAF AMD TAF CYQI
Valid from the 20 at 18:00 until the 21 at 06:00 UTC


201831Z 2018/2106 33013G23KT P6SM FEW060
BECMG 2102/2104 02008KT RMK NXT FCST BY 210000Z
CZQM FIR / North America



MET'MAP, your aeronautical weather chart ! - Copyright ORBIFLY December 2007 - Disclaimer

ORBIFLY MET'MAP TEAM :

Programming & Development : Alexandra Zaïnal
Concept & original design : Baudouin d'Aumeries
Assistance for programming : Marc-Olivier Méhu
Technical & hardware support : Manuel Goepfert

Contact : metmap@orbifly.com




SOURCES & CREDITS :

   NOAA